Time;durP1;ratioP1;P1;durP2;ratioP2;P2;SDS_P1;SDS_P2;PMS_P1;PMS_P2;Temp;Humidity;BMP_temperature;BMP_pressure;BME280_temperature;BME280_humidity;BME280_pressure;Samples;Min_cycle;Max_cycle;Signal;HPM_P1;HPM_P2
2023/10/04 00:00:14;;;;;;;12.93;7.57;;;;;;;;;;5070272;28;19965;-61
2023/10/04 00:02:39;;;;;;;14.07;7.25;;;;;;;;;;5071754;28;20008;-61
2023/10/04 00:05:04;;;;;;;7.70;6.37;;;;;;;;;;5070845;28;20495;-60
2023/10/04 00:07:30;;;;;;;16.40;7.05;;;;;;;;;;5072240;28;20062;-61
2023/10/04 00:09:55;;;;;;;8.73;6.05;;;;;;;;;;5069857;28;20016;-61
2023/10/04 00:12:20;;;;;;;11.80;6.57;;;;;;;;;;5072580;28;20131;-60
2023/10/04 00:14:46;;;;;;;7.90;5.55;;;;;;;;;;5071822;28;20027;-61
2023/10/04 00:17:11;;;;;;;12.45;6.20;;;;;;;;;;5070268;28;20380;-70
2023/10/04 00:19:36;;;;;;;12.07;6.97;;;;;;;;;;5071805;28;20028;-62
2023/10/04 00:22:02;;;;;;;14.32;6.50;;;;;;;;;;5070389;28;20074;-61
2023/10/04 00:24:27;;;;;;;16.75;7.55;;;;;;;;;;5071568;28;20422;-61
2023/10/04 00:26:52;;;;;;;7.07;4.50;;;;;;;;;;5070188;28;20062;-61
2023/10/04 00:29:18;;;;;;;18.07;7.13;;;;;;;;;;5071960;28;20341;-61
2023/10/04 00:31:43;;;;;;;21.00;6.85;;;;;;;;;;5069746;28;20435;-61
2023/10/04 00:34:08;;;;;;;11.63;6.27;;;;;;;;;;5071561;28;20033;-61
2023/10/04 00:36:33;;;;;;;13.32;7.03;;;;;;;;;;5070296;28;20147;-62
2023/10/04 00:38:58;;;;;;;13.15;5.88;;;;;;;;;;5071416;28;20110;-62
2023/10/04 00:41:24;;;;;;;9.93;5.88;;;;;;;;;;5068766;28;20032;-62
2023/10/04 00:43:49;;;;;;;10.23;5.68;;;;;;;;;;5070925;28;20085;-62
2023/10/04 00:46:17;;;;;;;7.38;5.25;;;;;;;;;;5069160;28;20032;-62
2023/10/04 00:48:43;;;;;;;9.23;5.82;;;;;;;;;;5071359;28;20013;-62
2023/10/04 00:51:08;;;;;;;8.15;4.75;;;;;;;;;;5069999;28;20039;-66
2023/10/04 00:53:34;;;;;;;15.27;7.57;;;;;;;;;;5071580;28;20471;-61
2023/10/04 00:55:59;;;;;;;8.45;5.55;;;;;;;;;;5069280;28;20045;-61
2023/10/04 00:58:25;;;;;;;10.82;5.72;;;;;;;;;;5070976;28;20077;-61
2023/10/04 01:00:50;;;;;;;13.05;5.60;;;;;;;;;;5069517;28;20040;-61
2023/10/04 01:03:19;;;;;;;13.75;5.00;;;;;;;;;;5070700;28;20016;-60
2023/10/04 01:05:50;;;;;;;13.40;5.65;;;;;;;;;;5069365;28;20036;-61
2023/10/04 01:08:16;;;;;;;12.35;6.80;;;;;;;;;;5071229;28;20035;-61
2023/10/04 01:10:46;;;;;;;8.30;5.38;;;;;;;;;;5068726;28;20033;-61
2023/10/04 01:13:12;;;;;;;12.50;7.03;;;;;;;;;;5071319;28;20082;-63
2023/10/04 01:15:39;;;;;;;12.43;6.23;;;;;;;;;;5069089;28;20395;-61
2023/10/04 01:18:04;;;;;;;12.13;7.93;;;;;;;;;;5070483;28;20458;-61
2023/10/04 01:20:30;;;;;;;18.33;8.85;;;;;;;;;;5069206;28;20399;-61
2023/10/04 01:23:00;;;;;;;18.98;8.68;;;;;;;;;;5070788;28;20023;-61
2023/10/04 01:25:26;;;;;;;13.50;6.25;;;;;;;;;;5069198;28;20036;-61
2023/10/04 01:27:51;;;;;;;13.48;6.75;;;;;;;;;;5070028;28;20021;-61
2023/10/04 01:30:16;;;;;;;18.75;7.47;;;;;;;;;;5068871;28;20468;-63
2023/10/04 01:32:41;;;;;;;14.85;7.28;;;;;;;;;;5070243;28;20019;-61
2023/10/04 01:35:08;;;;;;;8.60;5.63;;;;;;;;;;5069004;28;20047;-61
2023/10/04 01:37:36;;;;;;;13.57;6.90;;;;;;;;;;5070661;28;20020;-61
2023/10/04 01:40:05;;;;;;;32.55;7.95;;;;;;;;;;5068674;28;20025;-61
2023/10/04 01:42:30;;;;;;;16.55;8.57;;;;;;;;;;5070197;28;20024;-61
2023/10/04 01:44:55;;;;;;;7.93;5.03;;;;;;;;;;5069007;28;20468;-60
2023/10/04 01:47:21;;;;;;;13.20;5.82;;;;;;;;;;5070115;28;20024;-61
2023/10/04 01:49:46;;;;;;;11.23;6.50;;;;;;;;;;5070315;28;20044;-61
2023/10/04 01:52:11;;;;;;;13.27;7.57;;;;;;;;;;5069168;28;20048;-62
2023/10/04 01:54:37;;;;;;;33.25;6.20;;;;;;;;;;5070077;28;20058;-61
2023/10/04 01:57:05;;;;;;;13.45;8.73;;;;;;;;;;5068239;28;20038;-61
2023/10/04 01:59:31;;;;;;;13.10;6.50;;;;;;;;;;5070752;28;20029;-61
2023/10/04 02:01:57;;;;;;;14.05;6.78;;;;;;;;;;5068289;28;20066;-61
2023/10/04 02:04:23;;;;;;;13.80;5.70;;;;;;;;;;5070493;28;20032;-75
2023/10/04 02:06:48;;;;;;;20.42;7.10;;;;;;;;;;5066937;28;20503;-61
2023/10/04 02:09:16;;;;;;;10.23;6.45;;;;;;;;;;5069617;28;20020;-63
2023/10/04 02:11:41;;;;;;;10.95;6.20;;;;;;;;;;5068413;28;20170;-62
2023/10/04 02:14:07;;;;;;;17.70;6.13;;;;;;;;;;5070440;28;20046;-62
2023/10/04 02:16:34;;;;;;;11.43;5.93;;;;;;;;;;5068239;28;20448;-62
2023/10/04 02:19:00;;;;;;;10.75;6.20;;;;;;;;;;5070247;28;20025;-61
2023/10/04 02:21:26;;;;;;;19.33;5.28;;;;;;;;;;5068630;28;20064;-61
2023/10/04 02:23:51;;;;;;;11.77;5.78;;;;;;;;;;5069755;28;20074;-61
2023/10/04 02:26:16;;;;;;;7.63;5.40;;;;;;;;;;5068581;28;20037;-61
2023/10/04 02:28:41;;;;;;;13.38;5.13;;;;;;;;;;5070222;28;20020;-61
2023/10/04 02:31:07;;;;;;;12.43;5.93;;;;;;;;;;5068154;28;20048;-61
2023/10/04 02:33:32;;;;;;;13.90;6.45;;;;;;;;;;5068758;28;20036;-61
2023/10/04 02:35:58;;;;;;;10.02;5.95;;;;;;;;;;5068543;28;20074;-61
2023/10/04 02:38:23;;;;;;;5.70;5.00;;;;;;;;;;5069607;28;20044;-73
2023/10/04 02:40:52;;;;;;;10.88;5.20;;;;;;;;;;5068143;28;20653;-62
2023/10/04 02:43:18;;;;;;;11.48;6.25;;;;;;;;;;5070379;28;20376;-62
2023/10/04 02:45:43;;;;;;;12.65;6.00;;;;;;;;;;5067660;28;20063;-62
2023/10/04 02:48:10;;;;;;;15.40;5.50;;;;;;;;;;5070262;28;20447;-66
2023/10/04 02:50:37;;;;;;;11.10;5.72;;;;;;;;;;5068325;28;20605;-62
2023/10/04 02:53:02;;;;;;;15.70;5.63;;;;;;;;;;5069453;28;20027;-62
2023/10/04 02:55:31;;;;;;;13.60;5.75;;;;;;;;;;5068308;28;20036;-63
2023/10/04 02:57:56;;;;;;;10.30;5.13;;;;;;;;;;5069827;28;20392;-61
2023/10/04 03:00:22;;;;;;;15.00;5.82;;;;;;;;;;5068020;28;20063;-62
2023/10/04 03:02:48;;;;;;;16.42;5.78;;;;;;;;;;5069573;28;20030;-63
2023/10/04 03:05:20;;;;;;;11.15;6.60;;;;;;;;;;5068417;28;20105;-62
2023/10/04 03:07:47;;;;;;;15.98;6.07;;;;;;;;;;5069094;28;20094;-61
2023/10/04 03:10:13;;;;;;;9.15;6.30;;;;;;;;;;5071389;28;20052;-62
2023/10/04 03:12:38;;;;;;;13.90;6.10;;;;;;;;;;5073306;28;20051;-61
2023/10/04 03:15:04;;;;;;;10.98;5.10;;;;;;;;;;5071338;28;20021;-62
2023/10/04 03:17:29;;;;;;;14.88;6.55;;;;;;;;;;5073312;28;20155;-63
2023/10/04 03:19:54;;;;;;;14.88;6.53;;;;;;;;;;5071249;28;20059;-61
2023/10/04 03:22:22;;;;;;;10.32;5.00;;;;;;;;;;5072766;28;20384;-61
2023/10/04 03:24:47;;;;;;;18.37;7.57;;;;;;;;;;5072509;28;20024;-61
2023/10/04 03:27:13;;;;;;;14.35;5.95;;;;;;;;;;5071662;28;20040;-61
2023/10/04 03:29:39;;;;;;;36.33;7.47;;;;;;;;;;5072921;28;20028;-61
2023/10/04 03:32:04;;;;;;;15.02;4.95;;;;;;;;;;5071241;28;20495;-61
2023/10/04 03:34:29;;;;;;;13.98;5.25;;;;;;;;;;5071360;28;20059;-62
2023/10/04 03:36:54;;;;;;;10.23;5.17;;;;;;;;;;5070656;28;20154;-62
2023/10/04 03:39:25;;;;;;;13.77;6.25;;;;;;;;;;5072716;28;20031;-62
2023/10/04 03:41:50;;;;;;;22.73;6.90;;;;;;;;;;5070376;28;20036;-61
2023/10/04 03:44:16;;;;;;;17.97;8.50;;;;;;;;;;5072163;28;20353;-62
2023/10/04 03:46:43;;;;;;;10.88;5.82;;;;;;;;;;5070819;28;20502;-61
2023/10/04 03:49:08;;;;;;;13.80;4.90;;;;;;;;;;5072790;28;20472;-62
2023/10/04 03:51:33;;;;;;;15.10;6.57;;;;;;;;;;5070670;28;20044;-63
2023/10/04 03:53:58;;;;;;;13.00;5.27;;;;;;;;;;5072540;28;20387;-60
2023/10/04 03:56:25;;;;;;;13.73;6.37;;;;;;;;;;5071063;28;20042;-60
2023/10/04 03:58:51;;;;;;;13.93;5.60;;;;;;;;;;5071782;28;20032;-60
2023/10/04 04:01:16;;;;;;;16.17;6.57;;;;;;;;;;5071137;28;20043;-60
2023/10/04 04:03:41;;;;;;;15.87;6.47;;;;;;;;;;5070918;28;20473;-60
2023/10/04 04:06:07;;;;;;;11.77;6.23;;;;;;;;;;5070562;28;20066;-64
2023/10/04 04:08:33;;;;;;;16.30;5.50;;;;;;;;;;5071990;28;20438;-59
2023/10/04 04:10:58;;;;;;;11.30;6.15;;;;;;;;;;5070102;28;20029;-59
2023/10/04 04:13:23;;;;;;;14.35;6.20;;;;;;;;;;5071502;28;20021;-60
2023/10/04 04:15:49;;;;;;;12.65;6.07;;;;;;;;;;5070303;28;20119;-60
2023/10/04 04:18:20;;;;;;;19.50;7.13;;;;;;;;;;5071671;28;20365;-60
2023/10/04 04:20:48;;;;;;;16.67;7.10;;;;;;;;;;5069220;28;20040;-60
2023/10/04 04:23:15;;;;;;;13.35;6.28;;;;;;;;;;5071826;28;20017;-60
2023/10/04 04:25:40;;;;;;;12.02;7.32;;;;;;;;;;5069789;28;20128;-60
2023/10/04 04:28:07;;;;;;;14.18;6.53;;;;;;;;;;5071879;28;20218;-60
2023/10/04 04:30:33;;;;;;;15.25;6.63;;;;;;;;;;5068948;28;20032;-59
2023/10/04 04:33:01;;;;;;;11.02;5.20;;;;;;;;;;5071521;28;20424;-59
2023/10/04 04:35:47;;;;;;;27.92;8.07;;;;;;;;;;5069276;28;20044;-59
2023/10/04 04:38:28;;;;;;;22.27;6.80;;;;;;;;;;5071613;28;20539;-59
2023/10/04 04:40:56;;;;;;;14.23;7.15;;;;;;;;;;5070084;28;20041;-61
2023/10/04 04:45:53;;;;;;;14.33;5.40;;;;;;;;;;5070018;28;20040;-60
2023/10/04 04:48:19;;;;;;;23.40;8.07;;;;;;;;;;5071361;28;20020;-60
2023/10/04 04:50:44;;;;;;;21.17;9.38;;;;;;;;;;5069354;28;20040;-59
2023/10/04 04:53:14;;;;;;;9.88;5.78;;;;;;;;;;5071592;28;20494;-59
2023/10/04 04:55:39;;;;;;;12.82;7.53;;;;;;;;;;5069355;28;20653;-60
2023/10/04 04:58:05;;;;;;;16.90;6.97;;;;;;;;;;5071006;28;20013;-60
2023/10/04 05:00:31;;;;;;;11.63;6.70;;;;;;;;;;5070010;28;20040;-60
2023/10/04 05:02:57;;;;;;;15.60;6.43;;;;;;;;;;5070851;28;20028;-60
2023/10/04 05:05:23;;;;;;;24.77;7.35;;;;;;;;;;5069545;28;20035;-60
2023/10/04 05:07:48;;;;;;;20.45;6.03;;;;;;;;;;5070887;28;20024;-60
2023/10/04 05:10:14;;;;;;;11.75;6.80;;;;;;;;;;5069705;28;20029;-62
2023/10/04 05:12:40;;;;;;;15.73;6.53;;;;;;;;;;5070784;28;20535;-60
2023/10/04 05:15:21;;;;;;;14.85;7.68;;;;;;;;;;5069335;28;20027;-60
2023/10/04 05:17:50;;;;;;;21.92;6.70;;;;;;;;;;5069267;28;20073;-60
2023/10/04 05:20:19;;;;;;;15.90;7.32;;;;;;;;;;5069360;28;20047;-60
2023/10/04 05:22:45;;;;;;;18.25;7.50;;;;;;;;;;5070592;28;20088;-60
2023/10/04 05:25:10;;;;;;;14.32;5.70;;;;;;;;;;5069217;28;20115;-60
2023/10/04 05:27:36;;;;;;;14.43;7.03;;;;;;;;;;5070377;28;20163;-60
2023/10/04 05:30:02;;;;;;;14.43;6.18;;;;;;;;;;5069142;28;20027;-61
2023/10/04 05:32:27;;;;;;;12.35;8.27;;;;;;;;;;5069915;28;20044;-61
2023/10/04 05:34:53;;;;;;;15.32;7.30;;;;;;;;;;5068651;28;20473;-60
2023/10/04 05:37:18;;;;;;;20.42;8.52;;;;;;;;;;5070482;28;20008;-60
2023/10/04 05:39:43;;;;;;;24.30;8.03;;;;;;;;;;5070707;28;20031;-60
2023/10/04 05:42:08;;;;;;;15.77;8.02;;;;;;;;;;5068781;28;20032;-60
2023/10/04 05:44:34;;;;;;;19.95;7.22;;;;;;;;;;5070166;28;20025;-60
2023/10/04 05:46:59;;;;;;;16.10;7.75;;;;;;;;;;5068739;28;20094;-60
2023/10/04 05:49:26;;;;;;;12.43;7.10;;;;;;;;;;5070521;28;20379;-61
2023/10/04 05:51:51;;;;;;;19.88;8.27;;;;;;;;;;5068228;28;20098;-60
2023/10/04 05:54:16;;;;;;;13.45;7.28;;;;;;;;;;5070406;28;20352;-61
2023/10/04 05:56:42;;;;;;;15.10;7.75;;;;;;;;;;5068516;28;20032;-61
2023/10/04 05:59:10;;;;;;;14.50;7.90;;;;;;;;;;5070155;28;20031;-60
2023/10/04 06:01:37;;;;;;;;;;;;;;;;;;5069561;28;20067;-58
2023/10/04 06:04:03;;;;;;;24.27;9.57;;;;;;;;;;5070057;28;20451;-58
2023/10/04 06:06:28;;;;;;;21.00;9.02;;;;;;;;;;5068292;28;20127;-58
2023/10/04 06:08:54;;;;;;;21.75;8.15;;;;;;;;;;5070249;28;20028;-58
2023/10/04 06:11:19;;;;;;;26.27;9.23;;;;;;;;;;5068770;28;20063;-58
2023/10/04 06:13:44;;;;;;;16.50;8.10;;;;;;;;;;5068200;28;20051;-58
2023/10/04 06:16:10;;;;;;;12.90;7.97;;;;;;;;;;5068748;28;20037;-58
2023/10/04 06:18:35;;;;;;;13.40;8.13;;;;;;;;;;5070203;28;20406;-58
2023/10/04 06:21:00;;;;;;;27.23;9.67;;;;;;;;;;5068347;28;20036;-59
2023/10/04 06:23:25;;;;;;;14.68;7.00;;;;;;;;;;5070139;28;20430;-58
2023/10/04 06:25:51;;;;;;;19.10;8.53;;;;;;;;;;5068290;28;20033;-58
2023/10/04 06:28:17;;;;;;;23.50;8.40;;;;;;;;;;5069727;28;20470;-58
2023/10/04 06:30:42;;;;;;;16.08;7.85;;;;;;;;;;5068365;28;20376;-58
2023/10/04 06:33:09;;;;;;;23.35;9.20;;;;;;;;;;5069790;28;20017;-58
2023/10/04 06:35:34;;;;;;;11.30;7.22;;;;;;;;;;5068363;28;20075;-58
2023/10/04 06:38:01;;;;;;;18.40;8.13;;;;;;;;;;5069789;28;20046;-59
2023/10/04 06:40:27;;;;;;;27.08;7.47;;;;;;;;;;5068559;28;20969;-58
2023/10/04 06:42:53;;;;;;;16.60;6.75;;;;;;;;;;5068765;28;20031;-58
2023/10/04 06:45:19;;;;;;;32.45;9.50;;;;;;;;;;5070817;28;20028;-58
2023/10/04 06:47:46;;;;;;;16.58;7.47;;;;;;;;;;5073041;28;20055;-58
2023/10/04 06:50:13;;;;;;;18.08;8.15;;;;;;;;;;5071808;28;20095;-58
2023/10/04 06:52:39;;;;;;;15.35;6.25;;;;;;;;;;5073771;28;20375;-58
2023/10/04 06:55:07;;;;;;;8.85;6.13;;;;;;;;;;5068113;28;20012;-58
2023/10/04 06:57:33;;;;;;;10.50;5.72;;;;;;;;;;5072664;28;20494;-59
2023/10/04 06:59:59;;;;;;;26.10;9.77;;;;;;;;;;5069227;28;20085;-59
2023/10/04 07:02:24;;;;;;;17.17;6.97;;;;;;;;;;5054022;28;20024;-58
2023/10/04 07:04:49;;;;;;;17.90;7.53;;;;;;;;;;5053412;28;20025;-58
2023/10/04 07:07:15;;;;;;;16.35;7.32;;;;;;;;;;5051851;28;20128;-57
2023/10/04 07:09:40;;;;;;;15.90;6.82;;;;;;;;;;5053251;28;20024;-57
2023/10/04 07:12:05;;;;;;;20.30;6.20;;;;;;;;;;5059936;28;20075;-58
2023/10/04 07:14:30;;;;;;;18.10;7.00;;;;;;;;;;5073125;28;20468;-58
2023/10/04 07:16:57;;;;;;;16.90;6.93;;;;;;;;;;5053756;28;20062;-58
2023/10/04 07:19:22;;;;;;;11.38;6.70;;;;;;;;;;5052998;28;20077;-58
2023/10/04 07:21:49;;;;;;;15.60;7.80;;;;;;;;;;5057985;28;20036;-58
2023/10/04 07:24:14;;;;;;;11.13;7.18;;;;;;;;;;5073281;28;20025;-58
2023/10/04 07:26:39;;;;;;;20.17;7.50;;;;;;;;;;5070747;28;20519;-58
2023/10/04 07:29:04;;;;;;;15.70;7.43;;;;;;;;;;5073216;28;20016;-58
2023/10/04 07:31:34;;;;;;;17.63;7.43;;;;;;;;;;5070273;28;20485;-59
2023/10/04 07:33:59;;;;;;;12.32;7.03;;;;;;;;;;5072571;28;20140;-60
2023/10/04 07:36:25;;;;;;;14.80;8.50;;;;;;;;;;5071448;28;20523;-59
2023/10/04 07:38:50;;;;;;;14.48;8.15;;;;;;;;;;5072412;28;20025;-58
2023/10/04 07:41:15;;;;;;;12.70;6.50;;;;;;;;;;5071121;28;20047;-58
2023/10/04 07:43:40;;;;;;;12.13;6.27;;;;;;;;;;5072675;28;20060;-59
2023/10/04 07:46:05;;;;;;;16.13;7.53;;;;;;;;;;5071180;28;20029;-59
2023/10/04 07:48:31;;;;;;;14.37;6.40;;;;;;;;;;5072638;28;20280;-58
2023/10/04 07:50:56;;;;;;;16.58;6.38;;;;;;;;;;5070855;28;20036;-58
2023/10/04 07:53:22;;;;;;;7.45;5.03;;;;;;;;;;5072599;28;20039;-58
2023/10/04 07:55:48;;;;;;;15.02;7.22;;;;;;;;;;5069356;28;20238;-59
2023/10/04 07:58:14;;;;;;;12.98;5.93;;;;;;;;;;5072302;28;20070;-58
2023/10/04 08:00:41;;;;;;;14.65;6.50;;;;;;;;;;5070955;28;20036;-59
2023/10/04 08:03:06;;;;;;;10.18;5.03;;;;;;;;;;5072023;28;20521;-59
2023/10/04 08:05:32;;;;;;;15.83;6.60;;;;;;;;;;5070890;28;20064;-58
2023/10/04 08:07:58;;;;;;;15.20;6.55;;;;;;;;;;5071984;28;20024;-59
2023/10/04 08:10:25;;;;;;;10.30;5.47;;;;;;;;;;5070369;28;20495;-67
2023/10/04 08:12:52;;;;;;;16.42;5.97;;;;;;;;;;5070612;28;20498;-59
2023/10/04 08:15:21;;;;;;;17.13;7.35;;;;;;;;;;5070749;28;20035;-58
2023/10/04 08:17:51;;;;;;;16.83;4.95;;;;;;;;;;5071793;28;20034;-58
2023/10/04 08:20:16;;;;;;;21.00;8.40;;;;;;;;;;5070838;28;20066;-58
2023/10/04 08:22:41;;;;;;;8.32;5.63;;;;;;;;;;5072007;28;20463;-59
2023/10/04 08:25:08;;;;;;;10.52;6.38;;;;;;;;;;5070167;28;20187;-58
2023/10/04 08:27:34;;;;;;;15.68;7.88;;;;;;;;;;5071756;28;20119;-58
2023/10/04 08:29:59;;;;;;;15.35;6.32;;;;;;;;;;5070297;28;20099;-60
2023/10/04 08:32:27;;;;;;;20.80;7.47;;;;;;;;;;5071898;28;20008;-58
2023/10/04 08:34:52;;;;;;;12.85;4.82;;;;;;;;;;5070128;28;20102;-59
2023/10/04 08:37:17;;;;;;;26.23;9.23;;;;;;;;;;5071703;28;20442;-59
2023/10/04 08:39:43;;;;;;;13.83;5.70;;;;;;;;;;5071505;28;20023;-59
2023/10/04 08:42:09;;;;;;;18.25;6.30;;;;;;;;;;5069429;28;20467;-59
2023/10/04 08:44:34;;;;;;;8.90;4.87;;;;;;;;;;5071730;28;20379;-59
2023/10/04 08:47:03;;;;;;;7.17;4.33;;;;;;;;;;5069810;28;20052;-59
2023/10/04 08:49:31;;;;;;;10.45;6.88;;;;;;;;;;5071271;28;20477;-57
2023/10/04 08:52:00;;;;;;;15.77;5.57;;;;;;;;;;5069805;28;20120;-67
2023/10/04 08:54:26;;;;;;;10.55;5.97;;;;;;;;;;5071496;28;20145;-59
2023/10/04 08:56:54;;;;;;;11.85;5.28;;;;;;;;;;5069175;28;20059;-59
2023/10/04 08:59:20;;;;;;;14.68;4.88;;;;;;;;;;5071528;28;20081;-59
2023/10/04 09:01:46;;;;;;;12.57;5.68;;;;;;;;;;5069589;28;20071;-59
2023/10/04 09:04:13;;;;;;;16.75;5.75;;;;;;;;;;5070648;28;20024;-59
2023/10/04 09:06:38;;;;;;;19.17;6.32;;;;;;;;;;5069388;28;20036;-59
2023/10/04 09:09:05;;;;;;;14.43;5.97;;;;;;;;;;5071018;28;20537;-59
2023/10/04 09:11:30;;;;;;;21.38;4.90;;;;;;;;;;5069174;28;20037;-59
2023/10/04 09:13:55;;;;;;;21.25;6.00;;;;;;;;;;5070809;28;20377;-59
2023/10/04 09:16:31;;;;;;;15.35;5.18;;;;;;;;;;5069535;28;20033;-59
2023/10/04 09:19:14;;;;;;;11.07;4.55;;;;;;;;;;5070433;28;20131;-59
2023/10/04 09:21:41;;;;;;;11.65;6.00;;;;;;;;;;5069436;28;20446;-59
2023/10/04 09:24:10;;;;;;;11.13;5.05;;;;;;;;;;5070913;28;20115;-57
2023/10/04 09:26:36;;;;;;;13.40;5.20;;;;;;;;;;5068968;28;20546;-57
2023/10/04 09:29:02;;;;;;;14.30;5.63;;;;;;;;;;5070627;28;20012;-58
2023/10/04 09:31:27;;;;;;;13.23;4.55;;;;;;;;;;5069192;28;20028;-58
2023/10/04 09:33:52;;;;;;;18.63;5.17;;;;;;;;;;5070131;28;20029;-58
2023/10/04 09:36:33;;;;;;;17.10;8.10;;;;;;;;;;5068988;28;20028;-58
2023/10/04 09:39:05;;;;;;;10.98;3.92;;;;;;;;;;5070530;28;20427;-59
2023/10/04 09:41:37;;;;;;;12.15;3.97;;;;;;;;;;5068978;28;20109;-59
2023/10/04 09:44:02;;;;;;;16.83;6.40;;;;;;;;;;5070390;28;20035;-59
2023/10/04 09:46:45;;;;;;;23.05;6.25;;;;;;;;;;5068734;28;20041;-59
2023/10/04 09:49:10;;;;;;;18.42;5.70;;;;;;;;;;5070917;28;20024;-59
2023/10/04 09:51:36;;;;;;;12.60;4.32;;;;;;;;;;5069116;28;20028;-58
2023/10/04 09:54:01;;;;;;;15.85;5.57;;;;;;;;;;5069822;28;20105;-58
2023/10/04 09:56:26;;;;;;;14.27;5.10;;;;;;;;;;5068959;28;20159;-58
2023/10/04 09:58:53;;;;;;;17.63;4.73;;;;;;;;;;5070090;28;20468;-58
2023/10/04 10:01:23;;;;;;;10.65;3.72;;;;;;;;;;5066002;28;20457;-58
2023/10/04 10:03:51;;;;;;;11.00;5.30;;;;;;;;;;5069207;28;20025;-59
2023/10/04 10:06:16;;;;;;;;;;;;;;;;;;5068808;28;20041;-59
2023/10/04 10:08:44;;;;;;;15.63;6.60;;;;;;;;;;5068559;28;19904;-58
2023/10/04 10:11:10;;;;;;;13.68;6.05;;;;;;;;;;5068668;28;20510;-59
2023/10/04 10:13:36;;;;;;;24.40;6.55;;;;;;;;;;5070290;28;20493;-68
2023/10/04 10:16:03;;;;;;;12.02;6.20;;;;;;;;;;5068543;28;20127;-58
2023/10/04 10:18:28;;;;;;;14.85;6.72;;;;;;;;;;5070620;28;20495;-58
2023/10/04 10:20:55;;;;;;;18.30;5.80;;;;;;;;;;5071446;28;20040;-58
2023/10/04 10:23:21;;;;;;;10.73;4.80;;;;;;;;;;5072996;28;20810;-59
2023/10/04 10:26:04;;;;;;;14.70;4.88;;;;;;;;;;5072366;28;20035;-58
2023/10/04 10:28:31;;;;;;;21.85;6.55;;;;;;;;;;5072160;28;20063;-59
2023/10/04 10:31:00;;;;;;;9.60;4.88;;;;;;;;;;5071264;28;20029;-59
2023/10/04 10:33:25;;;;;;;15.45;6.85;;;;;;;;;;5074171;28;20021;-59
2023/10/04 10:38:35;;;;;;;15.10;4.40;;;;;;;;;;5073066;28;20111;-58
2023/10/04 10:41:00;;;;;;;11.50;6.35;;;;;;;;;;5071867;28;20399;-58
2023/10/04 10:43:25;;;;;;;11.95;7.05;;;;;;;;;;5073803;28;20028;-59
2023/10/04 10:45:51;;;;;;;24.73;6.40;;;;;;;;;;5071797;28;20054;-58
2023/10/04 10:48:16;;;;;;;15.60;6.30;;;;;;;;;;5073924;28;20022;-58
2023/10/04 10:50:41;;;;;;;10.70;5.18;;;;;;;;;;5072034;28;20431;-58
2023/10/04 10:53:09;;;;;;;9.63;5.20;;;;;;;;;;5073541;28;20016;-58
2023/10/04 10:55:34;;;;;;;37.00;7.78;;;;;;;;;;5072350;28;20025;-58
2023/10/04 10:57:59;;;;;;;13.13;6.07;;;;;;;;;;5073607;28;20046;-58
2023/10/04 11:00:31;;;;;;;26.05;7.72;;;;;;;;;;5071990;28;20032;-58
2023/10/04 11:02:57;;;;;;;17.63;7.05;;;;;;;;;;5073208;28;20509;-58
2023/10/04 11:05:22;;;;;;;14.93;5.45;;;;;;;;;;5072180;28;20028;-58
2023/10/04 11:07:48;;;;;;;17.85;7.00;;;;;;;;;;5071893;28;20024;-59
2023/10/04 11:10:16;;;;;;;13.82;7.07;;;;;;;;;;5071873;28;20119;-59
2023/10/04 11:12:46;;;;;;;19.00;6.38;;;;;;;;;;5073306;28;20414;-58
2023/10/04 11:15:12;;;;;;;13.13;6.15;;;;;;;;;;5072045;28;20024;-59
2023/10/04 11:17:38;;;;;;;9.80;5.32;;;;;;;;;;5073273;28;20050;-59
2023/10/04 11:20:04;;;;;;;19.60;4.88;;;;;;;;;;5071130;28;20020;-70
2023/10/04 11:22:29;;;;;;;10.38;4.53;;;;;;;;;;5073494;28;20039;-59
2023/10/04 11:24:55;;;;;;;16.57;5.77;;;;;;;;;;5071162;28;20102;-58
2023/10/04 11:27:22;;;;;;;12.35;5.85;;;;;;;;;;5072868;28;20035;-58
2023/10/04 11:29:49;;;;;;;13.40;5.13;;;;;;;;;;5073232;28;20013;-58
2023/10/04 11:32:14;;;;;;;13.23;5.80;;;;;;;;;;5071266;28;20124;-58
2023/10/04 11:34:42;;;;;;;14.90;6.57;;;;;;;;;;5072469;28;20287;-68
2023/10/04 11:37:08;;;;;;;18.30;6.70;;;;;;;;;;5068857;28;20029;-58
2023/10/04 11:39:33;;;;;;;16.15;5.50;;;;;;;;;;5071084;28;20129;-59
2023/10/04 11:41:59;;;;;;;12.70;5.05;;;;;;;;;;5053293;28;20085;-58
2023/10/04 11:44:24;;;;;;;15.90;5.38;;;;;;;;;;5052325;28;20096;-59
2023/10/04 11:46:56;;;;;;;13.15;4.90;;;;;;;;;;5067026;28;20045;-58
2023/10/04 11:49:22;;;;;;;21.90;5.90;;;;;;;;;;5063411;28;20024;-58
2023/10/04 11:51:48;;;;;;;9.80;4.83;;;;;;;;;;5047259;28;20025;-59
2023/10/04 11:54:14;;;;;;;16.92;6.82;;;;;;;;;;5052276;28;20017;-59
2023/10/04 11:56:40;;;;;;;15.93;5.93;;;;;;;;;;5050973;28;20396;-59
2023/10/04 11:59:05;;;;;;;10.68;6.25;;;;;;;;;;5052856;28;20017;-60
2023/10/04 12:01:30;;;;;;;13.90;5.85;;;;;;;;;;5050552;28;20040;-58
2023/10/04 12:03:58;;;;;;;8.45;4.07;;;;;;;;;;5051991;28;20047;-58
2023/10/04 12:06:24;;;;;;;11.50;6.28;;;;;;;;;;5050786;28;20401;-58
2023/10/04 12:08:49;;;;;;;14.88;5.78;;;;;;;;;;5051752;28;20017;-58
2023/10/04 12:11:21;;;;;;;14.50;7.35;;;;;;;;;;5049565;28;20048;-63
2023/10/04 12:13:46;;;;;;;19.25;5.18;;;;;;;;;;5052397;28;20017;-58
2023/10/04 12:16:12;;;;;;;15.05;6.65;;;;;;;;;;5049201;28;20033;-58
2023/10/04 12:18:38;;;;;;;13.85;6.30;;;;;;;;;;5052342;28;20025;-58
2023/10/04 12:21:03;;;;;;;19.42;8.90;;;;;;;;;;5050469;28;20051;-58
2023/10/04 12:23:30;;;;;;;12.20;4.63;;;;;;;;;;5051424;28;20108;-58
2023/10/04 12:25:55;;;;;;;11.20;5.80;;;;;;;;;;5050436;28;20039;-58
2023/10/04 12:28:20;;;;;;;13.43;5.50;;;;;;;;;;5052290;28;20024;-58
2023/10/04 12:30:48;;;;;;;11.73;5.40;;;;;;;;;;5049707;28;20811;-58
2023/10/04 12:33:13;;;;;;;9.65;5.18;;;;;;;;;;5051819;28;20048;-58
2023/10/04 12:35:38;;;;;;;11.73;6.25;;;;;;;;;;5050386;28;20033;-59
2023/10/04 12:38:04;;;;;;;10.95;4.78;;;;;;;;;;5051340;28;20028;-59
2023/10/04 12:40:29;;;;;;;9.07;4.90;;;;;;;;;;5050621;28;20052;-59
2023/10/04 12:42:54;;;;;;;14.43;7.03;;;;;;;;;;5049493;28;20534;-58
2023/10/04 12:45:20;;;;;;;11.48;6.18;;;;;;;;;;5055175;28;20044;-72
2023/10/04 12:47:46;;;;;;;14.27;7.38;;;;;;;;;;5069935;28;20104;-60
2023/10/04 12:50:14;;;;;;;10.95;5.15;;;;;;;;;;5066815;28;20396;-58
2023/10/04 12:52:40;;;;;;;12.52;5.50;;;;;;;;;;5050882;28;20013;-59
2023/10/04 12:55:06;;;;;;;9.95;5.93;;;;;;;;;;5052203;28;20571;-59
2023/10/04 12:57:32;;;;;;;16.75;5.97;;;;;;;;;;5071100;28;20471;-58
2023/10/04 12:59:57;;;;;;;16.75;6.78;;;;;;;;;;5068511;28;20056;-59
2023/10/04 13:02:22;;;;;;;17.90;8.95;;;;;;;;;;5051157;28;20021;-59
2023/10/04 13:04:50;;;;;;;12.02;5.18;;;;;;;;;;5050994;28;20472;-59
2023/10/04 13:07:15;;;;;;;10.50;4.75;;;;;;;;;;5049639;28;20044;-59
2023/10/04 13:09:44;;;;;;;13.40;7.13;;;;;;;;;;5051202;28;20367;-59
2023/10/04 13:12:09;;;;;;;13.68;4.47;;;;;;;;;;5068864;28;20063;-58
2023/10/04 13:14:34;;;;;;;13.60;7.82;;;;;;;;;;5066527;28;20055;-59
2023/10/04 13:17:00;;;;;;;17.95;5.75;;;;;;;;;;5030315;28;20041;-63
2023/10/04 13:19:25;;;;;;;9.95;5.03;;;;;;;;;;5029820;28;20090;-58
2023/10/04 13:21:51;;;;;;;11.55;5.20;;;;;;;;;;5027934;28;20048;-59
2023/10/04 13:24:18;;;;;;;37.35;8.00;;;;;;;;;;5029940;28;20767;-59
2023/10/04 13:26:45;;;;;;;14.40;6.25;;;;;;;;;;5043552;28;20139;-59
2023/10/04 13:29:14;;;;;;;12.95;5.22;;;;;;;;;;5049730;28;20071;-59
2023/10/04 13:31:39;;;;;;;11.48;6.80;;;;;;;;;;5048120;28;20030;-59
2023/10/04 13:34:05;;;;;;;14.07;6.35;;;;;;;;;;5050404;28;20045;-59
2023/10/04 13:36:30;;;;;;;11.38;6.35;;;;;;;;;;5048590;28;20124;-59
2023/10/04 13:38:55;;;;;;;14.47;7.17;;;;;;;;;;5050803;28;20380;-59
2023/10/04 13:41:22;;;;;;;10.50;5.70;;;;;;;;;;5049211;28;20497;-59
2023/10/04 13:43:49;;;;;;;11.88;5.35;;;;;;;;;;5049022;28;20017;-59
2023/10/04 13:46:14;;;;;;;20.50;6.88;;;;;;;;;;5048908;28;20040;-59
2023/10/04 13:48:41;;;;;;;11.68;4.95;;;;;;;;;;5050572;28;20029;-59
2023/10/04 13:51:07;;;;;;;21.88;7.75;;;;;;;;;;5048697;28;20033;-59
2023/10/04 13:53:34;;;;;;;14.65;5.75;;;;;;;;;;5049827;28;20017;-59
2023/10/04 13:56:00;;;;;;;22.38;7.00;;;;;;;;;;5048744;28;20044;-60
2023/10/04 13:58:25;;;;;;;11.07;5.78;;;;;;;;;;5050136;28;20051;-59
2023/10/04 14:00:53;;;;;;;10.30;5.27;;;;;;;;;;5047446;28;20059;-59
2023/10/04 14:03:19;;;;;;;;;;;;;;;;;;5050563;28;20423;-59
2023/10/04 14:05:44;;;;;;;14.07;7.65;;;;;;;;;;5055841;28;19924;-59
2023/10/04 14:08:09;;;;;;;20.02;7.18;;;;;;;;;;5050566;28;20021;-59
2023/10/04 14:10:34;;;;;;;9.97;5.80;;;;;;;;;;5048798;28;20041;-60
2023/10/04 14:13:01;;;;;;;10.27;5.20;;;;;;;;;;5049789;28;20021;-59
2023/10/04 14:15:27;;;;;;;11.65;6.80;;;;;;;;;;5048712;28;20059;-59
2023/10/04 14:17:56;;;;;;;11.07;5.28;;;;;;;;;;5050119;28;20055;-59
2023/10/04 14:20:21;;;;;;;17.85;6.05;;;;;;;;;;5048566;28;20036;-59
2023/10/04 14:22:48;;;;;;;11.25;6.70;;;;;;;;;;5049930;28;20020;-59
2023/10/04 14:25:14;;;;;;;10.45;5.32;;;;;;;;;;5048820;28;20037;-59
2023/10/04 14:27:40;;;;;;;11.68;6.35;;;;;;;;;;5050016;28;20017;-59
2023/10/04 14:30:08;;;;;;;14.05;8.60;;;;;;;;;;5048406;28;20032;-59